IFLY2 LLRS-LLRS
Flight info
| Callsign | IFLY2 |
|---|---|
| Flight time | 0h 38m |
| Altitude | 800 |
| Route | LSA ROUTES |
| Aircraft | TEXA/L-V/N |
Departure
| Time | 2026-04-29 14:14 |
|---|---|
| Airport | Rishon Lezion Airfield (LLRS) |
Arrival
| Time | 2026-04-29 14:52 |
|---|---|
| Airport | Rishon Lezion Airfield (LLRS) |
| Time | Latitude | Longitude | Altitude | Speed | Heading |
|---|---|---|---|---|---|
| 2026-04-29 14:02 | 31.96912 | 34.75301 | 67 ft | 0 kts | 360° |
| 2026-04-29 14:05 | 31.96924 | 34.75301 | 65 ft | 0 kts | 90° |
| 2026-04-29 14:07 | 31.96920 | 34.75340 | 66 ft | 0 kts | 121° |
| 2026-04-29 14:07 | 31.96883 | 34.75337 | 68 ft | 13 kts | 191° |
| 2026-04-29 14:08 | 31.96765 | 34.75334 | 68 ft | 21 kts | 179° |
| 2026-04-29 14:08 | 31.96589 | 34.75333 | 68 ft | 29 kts | 178° |
| 2026-04-29 14:08 | 31.96451 | 34.75337 | 68 ft | 19 kts | 180° |
| 2026-04-29 14:08 | 31.96353 | 34.75333 | 68 ft | 13 kts | 180° |
| 2026-04-29 14:09 | 31.96344 | 34.75338 | 65 ft | 0 kts | 126° |
| 2026-04-29 14:10 | 31.96337 | 34.75356 | 68 ft | 0 kts | 20° |
| 2026-04-29 14:10 | 31.96349 | 34.75359 | 65 ft | 1 kts | 359° |
| 2026-04-29 14:10 | 31.96466 | 34.75357 | 67 ft | 40 kts | 358° |
| 2026-04-29 14:11 | 31.96853 | 34.75337 | 140 ft | 63 kts | 340° |
| 2026-04-29 14:11 | 31.97174 | 34.74977 | 307 ft | 64 kts | 313° |
| 2026-04-29 14:11 | 31.97152 | 34.74456 | 362 ft | 84 kts | 229° |
| 2026-04-29 14:11 | 31.96551 | 34.74297 | 418 ft | 95 kts | 188° |
| 2026-04-29 14:12 | 31.95883 | 34.74275 | 457 ft | 98 kts | 190° |
| 2026-04-29 14:12 | 31.95421 | 34.74282 | 510 ft | 102 kts | 184° |
| 2026-04-29 14:12 | 31.94708 | 34.74357 | 530 ft | 107 kts | 163° |
| 2026-04-29 14:12 | 31.94088 | 34.74893 | 509 ft | 114 kts | 138° |
| 2026-04-29 14:13 | 31.93481 | 34.75516 | 410 ft | 116 kts | 140° |
| 2026-04-29 14:13 | 31.92869 | 34.76100 | 428 ft | 110 kts | 143° |
| 2026-04-29 14:13 | 31.92292 | 34.76690 | 437 ft | 110 kts | 131° |
| 2026-04-29 14:13 | 31.92006 | 34.77530 | 414 ft | 114 kts | 89° |
| 2026-04-29 14:14 | 31.92034 | 34.78429 | 435 ft | 107 kts | 87° |
| 2026-04-29 14:14 | 31.92059 | 34.79283 | 526 ft | 103 kts | 84° |
| 2026-04-29 14:14 | 31.92074 | 34.80072 | 780 ft | 94 kts | 84° |
| 2026-04-29 14:14 | 31.92116 | 34.80844 | 856 ft | 95 kts | 82° |
| 2026-04-29 14:15 | 31.92167 | 34.81628 | 861 ft | 97 kts | 82° |
| 2026-04-29 14:15 | 31.92145 | 34.82436 | 885 ft | 101 kts | 101° |
| 2026-04-29 14:15 | 31.91990 | 34.83265 | 841 ft | 106 kts | 103° |
| 2026-04-29 14:15 | 31.91786 | 34.84092 | 899 ft | 105 kts | 103° |
| 2026-04-29 14:16 | 31.91560 | 34.84940 | 859 ft | 114 kts | 105° |
| 2026-04-29 14:16 | 31.91333 | 34.85825 | 830 ft | 112 kts | 104° |
| 2026-04-29 14:16 | 31.91152 | 34.86709 | 818 ft | 110 kts | 100° |
| 2026-04-29 14:16 | 31.91003 | 34.87572 | 794 ft | 107 kts | 95° |
| 2026-04-29 14:17 | 31.90951 | 34.88416 | 834 ft | 100 kts | 87° |
| 2026-04-29 14:17 | 31.90930 | 34.89229 | 817 ft | 101 kts | 92° |
| 2026-04-29 14:17 | 31.90717 | 34.89999 | 827 ft | 98 kts | 118° |
| 2026-04-29 14:17 | 31.90404 | 34.90707 | 849 ft | 97 kts | 119° |
| 2026-04-29 14:18 | 31.90082 | 34.91415 | 856 ft | 101 kts | 118° |
| 2026-04-29 14:18 | 31.89737 | 34.92146 | 851 ft | 102 kts | 119° |
| 2026-04-29 14:18 | 31.89373 | 34.92857 | 870 ft | 102 kts | 121° |
| 2026-04-29 14:18 | 31.88942 | 34.93519 | 900 ft | 105 kts | 133° |
| 2026-04-29 14:19 | 31.88432 | 34.94161 | 889 ft | 110 kts | 137° |
| 2026-04-29 14:19 | 31.87917 | 34.94801 | 844 ft | 109 kts | 133° |
| 2026-04-29 14:19 | 31.87404 | 34.95466 | 825 ft | 111 kts | 136° |
| 2026-04-29 14:19 | 31.86833 | 34.96049 | 845 ft | 106 kts | 151° |
| 2026-04-29 14:20 | 31.86207 | 34.96485 | 879 ft | 104 kts | 156° |
| 2026-04-29 14:20 | 31.85560 | 34.96877 | 893 ft | 105 kts | 160° |
| 2026-04-29 14:20 | 31.84880 | 34.97191 | 883 ft | 105 kts | 165° |
| 2026-04-29 14:20 | 31.84191 | 34.97443 | 866 ft | 103 kts | 167° |
| 2026-04-29 14:21 | 31.83486 | 34.97514 | 830 ft | 101 kts | 191° |
| 2026-04-29 14:21 | 31.82833 | 34.97380 | 1059 ft | 88 kts | 198° |
| 2026-04-29 14:21 | 31.82266 | 34.97191 | 1259 ft | 84 kts | 205° |
| 2026-04-29 14:21 | 31.81707 | 34.96959 | 1463 ft | 84 kts | 209° |
| 2026-04-29 14:22 | 31.81177 | 34.96683 | 1689 ft | 81 kts | 213° |
| 2026-04-29 14:22 | 31.80685 | 34.96367 | 1887 ft | 81 kts | 219° |
| 2026-04-29 14:22 | 31.80191 | 34.95994 | 1994 ft | 89 kts | 222° |
| 2026-04-29 14:22 | 31.79648 | 34.95568 | 2015 ft | 99 kts | 216° |
| 2026-04-29 14:23 | 31.79029 | 34.95188 | 2001 ft | 101 kts | 229° |
| 2026-04-29 14:23 | 31.78721 | 34.94491 | 1991 ft | 97 kts | 263° |
| 2026-04-29 14:23 | 31.78644 | 34.93699 | 1949 ft | 96 kts | 282° |
| 2026-04-29 14:23 | 31.78877 | 34.93032 | 1846 ft | 82 kts | 306° |
| 2026-04-29 14:24 | 31.79277 | 34.92601 | 1350 ft | 76 kts | 345° |
| 2026-04-29 14:24 | 31.79712 | 34.92275 | 836 ft | 73 kts | 323° |
| 2026-04-29 14:24 | 31.79753 | 34.91657 | 572 ft | 93 kts | 254° |
| 2026-04-29 14:24 | 31.79526 | 34.90955 | 520 ft | 92 kts | 256° |
| 2026-04-29 14:25 | 31.79172 | 34.90342 | 454 ft | 102 kts | 203° |
| 2026-04-29 14:25 | 31.78614 | 34.90750 | 494 ft | 97 kts | 122° |
| 2026-04-29 14:25 | 31.78092 | 34.91180 | 610 ft | 98 kts | 182° |
| 2026-04-29 14:25 | 31.77666 | 34.91709 | 772 ft | 88 kts | 142° |
| 2026-04-29 14:26 | 31.77197 | 34.92202 | 585 ft | 97 kts | 72° |
| 2026-04-29 14:26 | 31.76903 | 34.92681 | 609 ft | 107 kts | 146° |
| 2026-04-29 14:26 | 31.76471 | 34.93412 | 634 ft | 109 kts | 116° |
| 2026-04-29 14:26 | 31.76148 | 34.94142 | 833 ft | 100 kts | 111° |
| 2026-04-29 14:27 | 31.75996 | 34.94939 | 1024 ft | 97 kts | 101° |
| 2026-04-29 14:27 | 31.75847 | 34.95644 | 864 ft | 82 kts | 89° |
| 2026-04-29 14:27 | 31.76114 | 34.95971 | 626 ft | 50 kts | 315° |
| 2026-04-29 14:28 | 31.76195 | 34.95046 | 720 ft | 65 kts | 308° |
| 2026-04-29 14:28 | 31.76607 | 34.94810 | 854 ft | 69 kts | 337° |
| 2026-04-29 14:28 | 31.77115 | 34.94786 | 943 ft | 80 kts | 15° |
| 2026-04-29 14:28 | 31.77652 | 34.94941 | 965 ft | 82 kts | 337° |
| 2026-04-29 14:29 | 31.77979 | 34.94410 | 1100 ft | 80 kts | 303° |
| 2026-04-29 14:29 | 31.78251 | 34.93894 | 982 ft | 70 kts | 312° |
| 2026-04-29 14:29 | 31.78571 | 34.93492 | 769 ft | 63 kts | 306° |
| 2026-04-29 14:29 | 31.78490 | 34.93031 | 546 ft | 69 kts | 226° |
| 2026-04-29 14:30 | 31.78080 | 34.92789 | 665 ft | 69 kts | 202° |
| 2026-04-29 14:30 | 31.77600 | 34.92808 | 741 ft | 75 kts | 155° |
| 2026-04-29 14:30 | 31.77265 | 34.93291 | 857 ft | 84 kts | 87° |
| 2026-04-29 14:30 | 31.77596 | 34.93830 | 996 ft | 83 kts | 39° |
| 2026-04-29 14:31 | 31.78065 | 34.94235 | 1152 ft | 79 kts | 19° |
| 2026-04-29 14:31 | 31.78554 | 34.94072 | 1394 ft | 72 kts | 328° |
| 2026-04-29 14:31 | 31.78996 | 34.93950 | 1651 ft | 66 kts | 18° |
| 2026-04-29 14:31 | 31.79236 | 34.94438 | 1853 ft | 77 kts | 93° |
| 2026-04-29 14:32 | 31.78949 | 34.94889 | 1794 ft | 88 kts | 117° |
| 2026-04-29 14:32 | 31.78472 | 34.95324 | 1969 ft | 93 kts | 186° |
| 2026-04-29 14:32 | 31.78075 | 34.94875 | 2152 ft | 85 kts | 276° |
| 2026-04-29 14:32 | 31.78156 | 34.94185 | 2265 ft | 73 kts | 289° |
| 2026-04-29 14:33 | 31.78265 | 34.93766 | 2392 ft | 35 kts | 295° |
| 2026-04-29 14:33 | 31.78371 | 34.93198 | 2191 ft | 87 kts | 274° |
| 2026-04-29 14:33 | 31.78009 | 34.92927 | 2209 ft | 72 kts | 122° |
| 2026-04-29 14:33 | 31.78161 | 34.93624 | 1973 ft | 107 kts | 96° |
| 2026-04-29 14:34 | 31.77659 | 34.93750 | 2224 ft | 81 kts | 252° |
| 2026-04-29 14:34 | 31.77892 | 34.93229 | 2291 ft | 73 kts | 317° |
| 2026-04-29 14:34 | 31.78159 | 34.92929 | 2402 ft | 37 kts | 321° |
| 2026-04-29 14:34 | 31.78497 | 34.92544 | 2141 ft | 86 kts | 316° |
| 2026-04-29 14:35 | 31.78814 | 34.92754 | 2124 ft | 77 kts | 120° |
| 2026-04-29 14:35 | 31.78276 | 34.92759 | 1920 ft | 103 kts | 191° |
| 2026-04-29 14:35 | 31.77850 | 34.93232 | 3814 ft | 94 kts | 33° |
| 2026-04-29 14:35 | 31.78330 | 34.93777 | 3699 ft | 94 kts | 28° |
| 2026-04-29 14:36 | 31.78952 | 34.94055 | 3295 ft | 97 kts | 41° |
| 2026-04-29 14:36 | 31.79362 | 34.94669 | 2546 ft | 98 kts | 82° |
| 2026-04-29 14:36 | 31.79634 | 34.95384 | 1900 ft | 107 kts | 29° |
| 2026-04-29 14:36 | 31.80029 | 34.94879 | 1722 ft | 86 kts | 276° |
| 2026-04-29 14:37 | 31.79914 | 34.94448 | 1637 ft | 98 kts | 206° |
| 2026-04-29 14:37 | 31.79314 | 34.94034 | 1735 ft | 87 kts | 259° |
| 2026-04-29 14:37 | 31.79214 | 34.93312 | 1726 ft | 93 kts | 268° |
| 2026-04-29 14:37 | 31.79146 | 34.92562 | 1726 ft | 89 kts | 267° |
| 2026-04-29 14:38 | 31.79367 | 34.91936 | 1775 ft | 91 kts | 334° |
| 2026-04-29 14:38 | 31.79994 | 34.92011 | 1744 ft | 94 kts | 6° |
| 2026-04-29 14:38 | 31.80641 | 34.92258 | 1729 ft | 103 kts | 28° |
| 2026-04-29 14:38 | 31.81160 | 34.92806 | 1719 ft | 100 kts | 43° |
| 2026-04-29 14:39 | 31.81564 | 34.93496 | 1579 ft | 105 kts | 52° |
| 2026-04-29 14:39 | 31.81907 | 34.94266 | 1520 ft | 107 kts | 60° |
| 2026-04-29 14:39 | 31.82202 | 34.95077 | 1324 ft | 110 kts | 62° |
| 2026-04-29 14:39 | 31.82510 | 34.95905 | 1213 ft | 108 kts | 64° |
| 2026-04-29 14:40 | 31.82829 | 34.96691 | 1106 ft | 102 kts | 52° |
| 2026-04-29 14:40 | 31.83399 | 34.97105 | 1147 ft | 97 kts | 4° |
| 2026-04-29 14:40 | 31.84032 | 34.96982 | 1190 ft | 90 kts | 337° |
| 2026-04-29 14:40 | 31.84589 | 34.96713 | 1181 ft | 84 kts | 335° |
| 2026-04-29 14:41 | 31.85104 | 34.96438 | 1206 ft | 79 kts | 337° |
| 2026-04-29 14:41 | 31.85629 | 34.96260 | 1235 ft | 81 kts | 342° |
| 2026-04-29 14:41 | 31.86183 | 34.96028 | 1220 ft | 86 kts | 332° |
| 2026-04-29 14:41 | 31.86690 | 34.95649 | 1212 ft | 86 kts | 322° |
| 2026-04-29 14:42 | 31.87154 | 34.95219 | 1227 ft | 85 kts | 320° |
| 2026-04-29 14:42 | 31.87609 | 34.94784 | 1260 ft | 84 kts | 321° |
| 2026-04-29 14:42 | 31.88065 | 34.94349 | 1268 ft | 85 kts | 320° |
| 2026-04-29 14:42 | 31.88505 | 34.93865 | 1257 ft | 87 kts | 315° |
| 2026-04-29 14:43 | 31.88934 | 34.93363 | 1265 ft | 88 kts | 316° |
| 2026-04-29 14:43 | 31.89353 | 34.92840 | 1249 ft | 90 kts | 312° |
| 2026-04-29 14:43 | 31.89748 | 34.92256 | 1194 ft | 92 kts | 309° |
| 2026-04-29 14:43 | 31.90110 | 34.91633 | 1186 ft | 91 kts | 307° |
| 2026-04-29 14:44 | 31.90449 | 34.91040 | 1183 ft | 85 kts | 307° |
| 2026-04-29 14:44 | 31.90735 | 34.90423 | 1163 ft | 86 kts | 295° |
| 2026-04-29 14:44 | 31.90897 | 34.89732 | 1160 ft | 89 kts | 285° |
| 2026-04-29 14:44 | 31.91037 | 34.89022 | 1160 ft | 90 kts | 289° |
| 2026-04-29 14:45 | 31.91180 | 34.88334 | 1213 ft | 83 kts | 292° |
| 2026-04-29 14:45 | 31.91332 | 34.87658 | 1215 ft | 87 kts | 289° |
| 2026-04-29 14:45 | 31.91495 | 34.86962 | 1217 ft | 88 kts | 294° |
| 2026-04-29 14:45 | 31.91695 | 34.86277 | 1210 ft | 90 kts | 293° |
| 2026-04-29 14:46 | 31.91887 | 34.85567 | 1205 ft | 92 kts | 287° |
| 2026-04-29 14:46 | 31.92014 | 34.84816 | 1212 ft | 92 kts | 287° |
| 2026-04-29 14:46 | 31.92215 | 34.84103 | 1167 ft | 92 kts | 298° |
| 2026-04-29 14:46 | 31.92495 | 34.83467 | 996 ft | 86 kts | 303° |
| 2026-04-29 14:47 | 31.92789 | 34.82854 | 790 ft | 85 kts | 304° |
| 2026-04-29 14:47 | 31.93119 | 34.82304 | 736 ft | 84 kts | 314° |
| 2026-04-29 14:47 | 31.93557 | 34.81817 | 786 ft | 88 kts | 328° |
| 2026-04-29 14:47 | 31.93917 | 34.81591 | 757 ft | 87 kts | 335° |
| 2026-04-29 14:48 | 31.94541 | 34.81029 | 635 ft | 84 kts | 307° |
| 2026-04-29 14:48 | 31.94697 | 34.80388 | 537 ft | 87 kts | 281° |
| 2026-04-29 14:48 | 31.94802 | 34.79700 | 515 ft | 84 kts | 284° |
| 2026-04-29 14:48 | 31.94926 | 34.79039 | 508 ft | 82 kts | 286° |
| 2026-04-29 14:49 | 31.95042 | 34.78364 | 481 ft | 86 kts | 284° |
| 2026-04-29 14:49 | 31.95176 | 34.77673 | 455 ft | 83 kts | 288° |
| 2026-04-29 14:49 | 31.95486 | 34.77158 | 405 ft | 78 kts | 314° |
| 2026-04-29 14:49 | 31.95880 | 34.76737 | 399 ft | 76 kts | 316° |
| 2026-04-29 14:50 | 31.96236 | 34.76278 | 393 ft | 76 kts | 303° |
| 2026-04-29 14:50 | 31.96528 | 34.75754 | 394 ft | 77 kts | 304° |
| 2026-04-29 14:50 | 31.96808 | 34.75224 | 428 ft | 74 kts | 303° |
| 2026-04-29 14:50 | 31.96993 | 34.74666 | 434 ft | 79 kts | 270° |
| 2026-04-29 14:51 | 31.96526 | 34.74293 | 436 ft | 91 kts | 186° |
| 2026-04-29 14:51 | 31.95918 | 34.74294 | 473 ft | 83 kts | 188° |
| 2026-04-29 14:51 | 31.95431 | 34.74605 | 478 ft | 87 kts | 112° |
| 2026-04-29 14:51 | 31.95439 | 34.75210 | 414 ft | 71 kts | 32° |
| 2026-04-29 14:52 | 31.95864 | 34.75357 | 231 ft | 60 kts | 355° |
| 2026-04-29 14:52 | 31.96278 | 34.75357 | 119 ft | 59 kts | 358° |
| 2026-04-29 14:52 | 31.96602 | 34.75355 | 68 ft | 35 kts | 2° |
| 2026-04-29 14:52 | 31.96804 | 34.75361 | 71 ft | 24 kts | 7° |
| 2026-04-29 14:53 | 31.96893 | 34.75389 | 68 ft | 0 kts | 336° |
| 2026-04-29 14:53 | 31.96933 | 34.75382 | 70 ft | 1 kts | 359° |